KSHR

Sheridan County Airport

Sheridan, Wyoming, USA
METAR KSHR 181453Z AUTO 00000KT 10SM CLR M01/M05 A2987 RMK AO2 SLP154 T10061050 56011
Observed Flight Rules
Jan-18 @ 14:53 UTC (40 minutes ago) Visual Flight Rules
Wind Visibility Clouds
Calm 10 miles
  • Clear skies
Temperatures Readings
Current -1°C / 30°F
Dewpoint -5°C / 23°F
Humidity 75%
Altimeter 29.87" Hg
Pressure 1015.4 hPa
Elevation 1202
METAR KSHR 181453Z AUTO 00000KT 10SM CLR M01/M05 A2987 RMK AO2 SLP154 T10061050 56011
Observed Flight Rules
Jan-18 @ 14:53 UTC
(40 minutes ago)
VFR
Wind Visibility
Calm 10 miles
Clouds
  • Clear skies
Temperature Dewpoint
-1°C / 30°F -5°C / 23°F
Humidity Altimeter Pressure
75% 29.87" Hg 1015.4 hPa